createdAt,value
2024-05-09T00:00:30.755Z,99.98
2024-05-09T00:01:25.435Z,99.98
2024-05-09T00:02:25.472Z,99.78
2024-05-09T00:03:25.410Z,99.78
2024-05-09T00:04:25.422Z,99.99
2024-05-09T00:05:25.531Z,99.78
2024-05-09T00:06:25.361Z,99.99
2024-05-09T00:07:25.352Z,99.99
2024-05-09T00:08:25.390Z,99.99
2024-05-09T00:09:25.358Z,99.99
2024-05-09T00:10:33.221Z,99.78
2024-05-09T00:11:25.404Z,99.98
2024-05-09T00:12:25.515Z,99.88
2024-05-09T00:13:25.351Z,99.99
2024-05-09T00:14:25.450Z,99.99
2024-05-09T00:15:25.326Z,99.88
2024-05-09T00:16:25.329Z,99.99
2024-05-09T00:17:25.533Z,99.99
2024-05-09T00:18:25.441Z,99.99
2024-05-09T00:19:25.447Z,99.99
2024-05-09T00:20:33.186Z,99.99
2024-05-09T00:21:25.311Z,99.99
2024-05-09T00:22:25.314Z,99.99
2024-05-09T00:23:25.383Z,99.99
2024-05-09T00:24:25.309Z,99.99
2024-05-09T00:25:25.300Z,99.99
2024-05-09T00:26:25.335Z,99.99
2024-05-09T00:27:25.301Z,99.99
2024-05-09T00:28:25.294Z,99.99
2024-05-09T00:29:25.430Z,99.99
2024-05-09T00:30:33.212Z,99.99
2024-05-09T00:31:25.286Z,99.99
2024-05-09T00:32:25.459Z,99.99
2024-05-09T00:33:25.539Z,99.99
2024-05-09T00:34:25.379Z,99.99
2024-05-09T00:35:25.488Z,99.99
2024-05-09T00:36:25.285Z,99.99
2024-05-09T00:37:25.266Z,99.99
2024-05-09T00:39:25.273Z,99.99
2024-05-09T00:40:35.077Z,99.99
2024-05-09T00:41:25.275Z,99.99
2024-05-09T00:42:25.258Z,99.99
2024-05-09T00:43:25.267Z,99.99
2024-05-09T00:44:25.394Z,99.99
2024-05-09T00:45:25.248Z,99.99
2024-05-09T00:46:25.245Z,99.99
2024-05-09T00:47:25.484Z,99.99
2024-05-09T00:48:25.390Z,99.99
2024-05-09T00:49:25.365Z,99.99
2024-05-09T00:50:33.819Z,99.99
2024-05-09T00:51:25.257Z,99.99
2024-05-09T00:52:25.226Z,99.99
2024-05-09T00:53:25.234Z,99.99
2024-05-09T00:54:25.220Z,99.99
2024-05-09T00:55:25.218Z,99.99
2024-05-09T00:56:25.330Z,99.99
2024-05-09T00:57:25.225Z,99.99
2024-05-09T00:58:25.213Z,99.99
2024-05-09T00:59:25.324Z,99.99
2024-05-09T01:01:25.284Z,99.99
2024-05-09T01:02:25.278Z,99.99
2024-05-09T01:03:25.380Z,99.99
2024-05-09T01:04:25.282Z,99.99
2024-05-09T01:05:25.222Z,99.99
2024-05-09T01:06:25.196Z,99.99
2024-05-09T01:07:25.199Z,99.99
2024-05-09T01:08:25.202Z,99.99
2024-05-09T01:09:25.199Z,99.99
2024-05-09T01:10:32.275Z,99.99
2024-05-09T01:11:25.277Z,99.99
2024-05-09T01:12:25.348Z,99.99
2024-05-09T01:13:25.167Z,99.99
2024-05-09T01:14:25.225Z,99.99
2024-05-09T01:15:25.159Z,99.99
2024-05-09T01:16:25.180Z,99.99
2024-05-09T01:17:25.346Z,99.99
2024-05-09T01:18:25.277Z,99.99
2024-05-09T01:19:25.356Z,99.99
2024-05-09T01:20:36.535Z,99.99
2024-05-09T01:21:25.220Z,99.99
2024-05-09T01:22:25.145Z,99.99
2024-05-09T01:23:25.244Z,99.99
2024-05-09T01:24:25.136Z,99.99
2024-05-09T01:25:25.138Z,99.99
2024-05-09T01:26:25.252Z,99.99
2024-05-09T01:27:25.128Z,99.99
2024-05-09T01:28:25.126Z,99.99
2024-05-09T01:29:25.209Z,99.99
2024-05-09T01:30:31.884Z,99.99
2024-05-09T01:31:25.118Z,99.99
2024-05-09T01:32:25.222Z,99.99
2024-05-09T01:33:25.260Z,99.99
2024-05-09T01:34:25.114Z,99.99
2024-05-09T01:35:25.237Z,99.99
2024-05-09T01:36:25.111Z,99.99
2024-05-09T01:37:25.114Z,99.99
2024-05-09T01:38:25.149Z,99.99
2024-05-09T01:39:25.103Z,99.99
2024-05-09T01:40:33.746Z,99.99
2024-05-09T01:41:25.210Z,99.99
2024-05-09T01:42:25.088Z,99.99
2024-05-09T01:43:25.093Z,99.99
2024-05-09T01:44:25.192Z,99.99
2024-05-09T01:45:25.073Z,99.99
2024-05-09T01:46:25.074Z,99.99
2024-05-09T01:47:25.272Z,99.99
2024-05-09T01:48:25.243Z,99.99
2024-05-09T01:49:25.254Z,99.99
2024-05-09T01:50:35.945Z,99.99
2024-05-09T01:51:25.054Z,99.99
2024-05-09T01:52:25.056Z,99.99
2024-05-09T01:53:25.095Z,99.99
2024-05-09T01:54:25.056Z,99.99
2024-05-09T01:55:25.052Z,99.99
2024-05-09T01:56:25.103Z,99.99
2024-05-09T01:57:25.054Z,99.99
2024-05-09T01:58:25.043Z,99.99
2024-05-09T01:59:25.118Z,99.99
2024-05-09T02:00:34.152Z,99.99
2024-05-09T02:01:25.103Z,99.99
2024-05-09T02:02:25.093Z,99.99
2024-05-09T02:03:25.174Z,99.99
2024-05-09T02:04:25.175Z,99.99
2024-05-09T02:05:25.082Z,99.99
2024-05-09T02:06:25.016Z,99.99
2024-05-09T02:07:25.011Z,99.99
2024-05-09T02:08:25.029Z,99.99
2024-05-09T02:09:25.001Z,99.99
2024-05-09T02:10:31.751Z,99.99
2024-05-09T02:11:25.140Z,99.99
2024-05-09T02:12:25.190Z,99.99
2024-05-09T02:13:24.987Z,99.99
2024-05-09T02:14:25.095Z,99.99
2024-05-09T02:15:24.999Z,99.99
2024-05-09T02:16:24.977Z,99.99
2024-05-09T02:17:25.096Z,99.99
2024-05-09T02:18:25.069Z,99.99
2024-05-09T02:19:25.034Z,99.99
2024-05-09T02:20:33.131Z,99.99
2024-05-09T02:21:24.964Z,99.99
2024-05-09T02:22:24.984Z,99.99
2024-05-09T02:23:25.014Z,99.99
2024-05-09T02:24:24.953Z,99.99
2024-05-09T02:25:24.956Z,99.99
2024-05-09T02:26:25.026Z,99.99
2024-05-09T02:27:24.945Z,99.99
2024-05-09T02:28:24.941Z,99.99
2024-05-09T02:29:25.026Z,99.99
2024-05-09T02:30:34.904Z,99.99
2024-05-09T02:31:24.987Z,99.99
2024-05-09T02:32:25.065Z,99.99
2024-05-09T02:33:25.189Z,99.99
2024-05-09T02:34:25.033Z,99.99
2024-05-09T02:35:25.031Z,99.99
2024-05-09T02:36:24.920Z,99.99
2024-05-09T02:37:24.935Z,99.99
2024-05-09T02:38:24.930Z,99.99
2024-05-09T02:39:24.906Z,99.99
2024-05-09T02:40:33.265Z,99.99
2024-05-09T02:41:24.954Z,99.99
2024-05-09T02:42:24.901Z,99.99
2024-05-09T02:43:24.887Z,99.99
2024-05-09T02:44:25.004Z,99.99
2024-05-09T02:45:24.898Z,99.99
2024-05-09T02:46:24.898Z,99.99
2024-05-09T02:47:24.948Z,99.99
2024-05-09T02:48:25.059Z,99.99
2024-05-09T02:49:24.962Z,99.99
2024-05-09T02:50:33.141Z,99.99
2024-05-09T02:51:24.873Z,99.99
2024-05-09T02:52:24.870Z,99.99
2024-05-09T02:53:24.885Z,99.99
2024-05-09T02:54:24.854Z,99.99
2024-05-09T02:55:24.854Z,99.99
2024-05-09T02:56:24.900Z,99.99
2024-05-09T02:57:24.859Z,99.99
2024-05-09T02:58:24.856Z,99.99
2024-05-09T02:59:24.934Z,99.99
2024-05-09T03:00:29.963Z,99.99
2024-05-09T03:01:24.885Z,99.99
2024-05-09T03:02:24.911Z,99.99
2024-05-09T03:03:25.060Z,99.99
2024-05-09T03:04:24.855Z,99.99
2024-05-09T03:05:24.837Z,99.99
2024-05-09T03:06:24.815Z,99.99
2024-05-09T03:07:24.817Z,99.99
2024-05-09T03:08:24.835Z,99.99
2024-05-09T03:09:24.818Z,99.99
2024-05-09T03:10:28.614Z,99.99
2024-05-09T03:11:24.995Z,99.99
2024-05-09T03:12:24.863Z,99.99
2024-05-09T03:13:24.799Z,99.99
2024-05-09T03:14:24.931Z,99.99
2024-05-09T03:15:24.790Z,99.99
2024-05-09T03:16:24.785Z,99.99
2024-05-09T03:17:25.055Z,99.99
2024-05-09T03:18:24.912Z,99.99
2024-05-09T03:19:24.878Z,99.99
2024-05-09T03:20:32.271Z,99.99
2024-05-09T03:21:24.771Z,99.99
2024-05-09T03:22:24.763Z,99.99
2024-05-09T03:23:24.833Z,99.99
2024-05-09T03:24:24.755Z,99.99
2024-05-09T03:25:24.756Z,99.99
2024-05-09T03:26:24.798Z,99.99
2024-05-09T03:27:24.795Z,99.99
2024-05-09T03:28:24.737Z,99.99
2024-05-09T03:29:24.828Z,99.99
2024-05-09T03:30:31.178Z,99.99
2024-05-09T03:31:24.725Z,99.99
2024-05-09T03:32:24.796Z,99.99
2024-05-09T03:33:24.932Z,99.99
2024-05-09T03:34:24.791Z,99.99
2024-05-09T03:35:24.851Z,99.99
2024-05-09T03:36:24.713Z,99.99
2024-05-09T03:37:24.710Z,99.99
2024-05-09T03:38:24.756Z,99.99
2024-05-09T03:39:24.714Z,99.99
2024-05-09T03:40:28.919Z,99.99
2024-05-09T03:41:24.765Z,99.99
2024-05-09T03:42:24.692Z,99.99
2024-05-09T03:43:25.091Z,99.99
2024-05-09T03:44:24.716Z,99.99
2024-05-09T03:45:24.682Z,99.99
2024-05-09T03:46:24.678Z,99.99
2024-05-09T03:47:24.787Z,99.99
2024-05-09T03:48:24.857Z,99.99
2024-05-09T03:49:24.935Z,99.99
2024-05-09T03:50:30.200Z,99.99
2024-05-09T03:51:24.664Z,99.99
2024-05-09T03:52:24.656Z,99.99
2024-05-09T03:53:24.667Z,99.99
2024-05-09T03:54:24.648Z,99.99
2024-05-09T03:55:24.647Z,99.99
2024-05-09T03:56:24.696Z,99.99
2024-05-09T03:57:24.640Z,99.99
2024-05-09T03:58:24.643Z,99.99
2024-05-09T03:59:24.718Z,99.99
2024-05-09T04:00:31.203Z,99.99
2024-05-09T04:01:24.677Z,99.99
2024-05-09T04:02:24.658Z,99.99
2024-05-09T04:03:24.967Z,99.99
2024-05-09T04:04:24.652Z,99.99
2024-05-09T04:05:24.653Z,99.99
2024-05-09T04:06:24.609Z,99.99
2024-05-09T04:07:24.605Z,99.99
2024-05-09T04:08:24.662Z,99.99
2024-05-09T04:09:24.601Z,99.99
2024-05-09T04:10:31.245Z,99.99
2024-05-09T04:11:24.653Z,99.99
2024-05-09T04:12:24.612Z,99.99
2024-05-09T04:13:24.588Z,99.99
2024-05-09T04:14:24.646Z,99.99
2024-05-09T04:15:24.572Z,99.99
2024-05-09T04:16:24.573Z,99.99
2024-05-09T04:17:24.651Z,99.99
2024-05-09T04:18:24.634Z,99.99
2024-05-09T04:19:24.725Z,99.99
2024-05-09T04:20:33.822Z,99.99
2024-05-09T04:21:24.553Z,99.99
2024-05-09T04:22:24.552Z,99.99
2024-05-09T04:23:24.662Z,99.99
2024-05-09T04:24:24.545Z,99.99
2024-05-09T04:25:24.556Z,99.99
2024-05-09T04:26:24.585Z,99.99
2024-05-09T04:27:24.529Z,99.99
2024-05-09T04:28:24.529Z,99.99
2024-05-09T04:29:24.616Z,99.99
2024-05-09T04:30:33.796Z,99.99
2024-05-09T04:31:24.552Z,99.99
2024-05-09T04:32:24.616Z,99.99
2024-05-09T04:33:24.833Z,99.99
2024-05-09T04:34:24.657Z,99.99
2024-05-09T04:35:24.746Z,99.99
2024-05-09T04:36:24.500Z,99.99
2024-05-09T04:37:24.501Z,99.99
2024-05-09T04:38:24.550Z,99.99
2024-05-09T04:39:24.491Z,99.99
2024-05-09T04:40:31.500Z,99.99
2024-05-09T04:41:24.523Z,99.99
2024-05-09T04:42:24.478Z,99.99
2024-05-09T04:43:24.499Z,99.99
2024-05-09T04:44:24.537Z,99.99
2024-05-09T04:45:24.486Z,99.99
2024-05-09T04:46:24.469Z,99.89
2024-05-09T04:47:24.646Z,99.99
2024-05-09T04:48:24.623Z,99.99
2024-05-09T04:49:24.604Z,99.99
2024-05-09T04:50:30.429Z,99.99
2024-05-09T04:51:24.464Z,99.48
2024-05-09T04:52:24.455Z,99.27
2024-05-09T04:53:24.488Z,98.76
2024-05-09T04:54:33.683Z,99.17
2024-05-09T04:55:24.436Z,99.38
2024-05-09T04:56:24.522Z,99.17
2024-05-09T04:57:24.429Z,99.07
2024-05-09T04:58:24.424Z,98.86
2024-05-09T04:59:24.550Z,99.17
2024-05-09T05:00:32.006Z,98.86
2024-05-09T05:01:24.476Z,98.55
2024-05-09T05:02:24.576Z,98.86
2024-05-09T05:03:24.777Z,98.82
2024-05-09T05:04:24.416Z,98.82
2024-05-09T05:05:24.470Z,98.71
2024-05-09T05:06:24.397Z,98.14
2024-05-09T05:07:24.400Z,98.71
2024-05-09T05:08:24.415Z,98.61
2024-05-09T05:09:24.400Z,98.71
2024-05-09T05:10:33.011Z,98.46
2024-05-09T05:11:24.440Z,98.77
2024-05-09T05:12:24.463Z,98.77
2024-05-09T05:13:24.925Z,98.67
2024-05-09T05:14:24.461Z,98.16
2024-05-09T05:15:24.370Z,98.52
2024-05-09T05:16:24.364Z,98.62
2024-05-09T05:17:24.416Z,99.54
2024-05-09T05:18:24.611Z,98.99
2024-05-09T05:19:24.504Z,98.99
2024-05-09T05:20:31.131Z,98.37
2024-05-09T05:21:24.429Z,98.27
2024-05-09T05:22:24.347Z,98.53
2024-05-09T05:23:24.458Z,98.74
2024-05-09T05:24:24.359Z,97.81
2024-05-09T05:25:24.340Z,97.91
2024-05-09T05:26:24.336Z,98.02
2024-05-09T05:27:24.332Z,98.12
2024-05-09T05:28:24.366Z,98.12
2024-05-09T05:29:24.372Z,97.81
2024-05-09T05:30:29.099Z,97.36
2024-05-09T05:31:24.356Z,96.84
2024-05-09T05:32:24.572Z,96.13
2024-05-09T05:33:24.476Z,96.44
2024-05-09T05:34:24.311Z,96.54
2024-05-09T05:35:24.499Z,96.29
2024-05-09T05:36:24.421Z,96.44
2024-05-09T05:37:24.306Z,96.49
2024-05-09T05:38:27.415Z,95.73
2024-05-09T05:39:24.301Z,95.43
2024-05-09T05:40:32.414Z,94.92
2024-05-09T05:41:24.387Z,95.12
2024-05-09T05:42:24.289Z,94.46
2024-05-09T05:43:24.288Z,94.26
2024-05-09T05:44:24.326Z,93.95
2024-05-09T05:45:24.286Z,93.70
2024-05-09T05:46:24.280Z,93.29
2024-05-09T05:47:24.454Z,92.88
2024-05-09T05:48:24.534Z,92.47
2024-05-09T05:49:24.357Z,92.33
2024-05-09T05:50:31.963Z,91.72
2024-05-09T05:51:24.275Z,90.80
2024-05-09T05:52:24.262Z,90.70
2024-05-09T05:53:24.336Z,90.59
2024-05-09T05:54:24.274Z,90.55
2024-05-09T05:55:24.260Z,90.45
2024-05-09T05:56:24.317Z,90.66
2024-05-09T05:57:24.259Z,89.53
2024-05-09T05:58:24.279Z,89.23
2024-05-09T05:59:24.298Z,89.08
2024-05-09T06:00:29.644Z,88.67
2024-05-09T06:01:24.308Z,88.57
2024-05-09T06:02:24.306Z,88.57
2024-05-09T06:03:24.281Z,88.37
2024-05-09T06:04:24.264Z,88.57
2024-05-09T06:05:26.033Z,88.47
2024-05-09T06:06:24.414Z,87.51
2024-05-09T06:07:24.231Z,87.92
2024-05-09T06:08:26.179Z,87.10
2024-05-09T06:09:24.230Z,87.00
2024-05-09T06:10:26.475Z,87.10
2024-05-09T06:11:24.301Z,86.59
2024-05-09T06:12:24.370Z,86.76
2024-05-09T06:13:24.240Z,86.76
2024-05-09T06:14:24.326Z,85.84
2024-05-09T06:15:24.216Z,85.94
2024-05-09T06:16:24.217Z,84.88
2024-05-09T06:17:24.540Z,84.06
2024-05-09T06:18:24.551Z,84.47
2024-05-09T06:19:24.509Z,84.47
2024-05-09T06:20:33.616Z,84.33
2024-05-09T06:21:24.250Z,84.23
2024-05-09T06:22:24.214Z,84.53
2024-05-09T06:23:24.225Z,84.53
2024-05-09T06:24:24.204Z,84.64
2024-05-09T06:25:24.202Z,84.23
2024-05-09T06:26:24.243Z,84.53
2024-05-09T06:27:24.217Z,84.74
2024-05-09T06:28:24.196Z,84.59
2024-05-09T06:29:24.253Z,84.53
2024-05-09T06:30:30.711Z,84.80
2024-05-09T06:31:24.197Z,84.90
2024-05-09T06:32:24.412Z,83.68
2024-05-09T06:33:24.507Z,83.58
2024-05-09T06:34:24.343Z,84.19
2024-05-09T06:35:24.244Z,84.19
2024-05-09T06:36:24.356Z,83.07
2024-05-09T06:37:24.197Z,83.03
2024-05-09T06:38:24.348Z,83.48
2024-05-09T06:39:24.189Z,83.34
2024-05-09T06:40:29.266Z,82.82
2024-05-09T06:41:24.244Z,82.62
2024-05-09T06:42:24.178Z,83.09
2024-05-09T06:43:24.192Z,82.68
2024-05-09T06:44:24.315Z,81.46
2024-05-09T06:45:24.184Z,80.24
2024-05-09T06:46:24.172Z,79.74
2024-05-09T06:47:24.506Z,79.63
2024-05-09T06:48:24.419Z,78.72
2024-05-09T06:49:24.413Z,78.28
2024-05-09T06:50:28.013Z,78.89
2024-05-09T06:51:24.198Z,77.36
2024-05-09T06:52:24.174Z,78.08
2024-05-09T06:53:24.352Z,78.28
2024-05-09T06:54:24.175Z,77.53
2024-05-09T06:55:24.170Z,78.34
2024-05-09T06:56:24.291Z,78.24
2024-05-09T06:57:24.168Z,79.05
2024-05-09T06:58:24.169Z,79.46
2024-05-09T06:59:24.208Z,79.22
2024-05-09T07:00:30.621Z,78.91
2024-05-09T07:01:24.243Z,79.63
2024-05-09T07:02:24.235Z,79.12
2024-05-09T07:03:24.324Z,79.12
2024-05-09T07:04:24.307Z,78.57
2024-05-09T07:05:24.290Z,78.57
2024-05-09T07:06:24.325Z,77.25
2024-05-09T07:07:24.159Z,76.34
2024-05-09T07:08:24.269Z,77.83
2024-05-09T07:09:24.178Z,76.40
2024-05-09T07:10:29.144Z,76.91
2024-05-09T07:11:24.284Z,75.59
2024-05-09T07:12:24.268Z,75.49
2024-05-09T07:13:24.174Z,75.59
2024-05-09T07:14:24.293Z,75.49
2024-05-09T07:15:24.166Z,74.27
2024-05-09T07:16:24.175Z,73.97
2024-05-09T07:17:24.312Z,73.66
2024-05-09T07:18:24.331Z,73.57
2024-05-09T07:19:24.246Z,75.09
2024-05-09T07:20:32.210Z,74.98
2024-05-09T07:21:24.186Z,74.95
2024-05-09T07:22:24.164Z,74.74
2024-05-09T07:23:24.196Z,74.34
2024-05-09T07:24:24.174Z,74.85
2024-05-09T07:25:24.188Z,75.15
2024-05-09T07:26:24.254Z,75.42
2024-05-09T07:27:24.161Z,75.42
2024-05-09T07:28:24.165Z,74.91
2024-05-09T07:29:24.237Z,73.80
2024-05-09T07:30:30.785Z,74.61
2024-05-09T07:31:24.165Z,74.57
2024-05-09T07:32:24.240Z,73.60
2024-05-09T07:33:24.852Z,73.05
2024-05-09T07:34:24.239Z,73.53
2024-05-09T07:35:24.211Z,73.05
2024-05-09T07:36:24.353Z,73.16
2024-05-09T07:37:24.165Z,73.25
2024-05-09T07:38:24.255Z,73.02
2024-05-09T07:39:24.168Z,72.81
2024-05-09T07:40:32.265Z,71.20
2024-05-09T07:41:24.291Z,70.59
2024-05-09T07:42:24.988Z,70.15
2024-05-09T07:43:24.169Z,71.16
2024-05-09T07:44:24.216Z,68.63
2024-05-09T07:45:40.578Z,68.23
2024-05-09T07:47:17.263Z,66.71
2024-05-09T07:48:49.078Z,66.91
2024-05-09T07:53:30.636Z,62.62
2024-05-09T07:53:39.286Z,61.98
2024-05-09T07:54:24.371Z,60.51
2024-05-09T07:55:24.326Z,59.04
2024-05-09T07:56:25.413Z,57.10
2024-05-09T07:57:24.226Z,59.46
2024-05-09T07:58:24.214Z,56.46
2024-05-09T07:59:24.207Z,54.60
2024-05-09T08:00:30.836Z,51.94
2024-05-09T08:01:24.437Z,50.84
2024-05-09T08:02:24.331Z,51.06
2024-05-09T08:03:24.397Z,52.26
2024-05-09T08:04:26.437Z,52.97
2024-05-09T08:05:24.298Z,52.69
2024-05-09T08:06:24.498Z,50.49
2024-05-09T08:07:24.318Z,51.54
2024-05-09T08:08:24.294Z,52.22
2024-05-09T08:09:24.290Z,54.10
2024-05-09T08:10:28.563Z,51.37
2024-05-09T08:11:24.508Z,51.14
2024-05-09T08:12:24.309Z,51.12
2024-05-09T08:13:24.342Z,50.59
2024-05-09T08:14:24.333Z,49.11
2024-05-09T08:15:24.338Z,50.09
2024-05-09T08:16:24.484Z,49.59
2024-05-09T08:17:24.439Z,48.17
2024-05-09T08:18:24.535Z,49.52
2024-05-09T08:19:24.516Z,49.08
2024-05-09T08:20:30.823Z,46.34
2024-05-09T08:21:24.402Z,45.04
2024-05-09T08:23:06.887Z,48.13
2024-05-09T08:24:06.864Z,46.36
2024-05-09T08:25:06.991Z,46.86
2024-05-09T08:26:06.893Z,46.08
2024-05-09T08:27:06.911Z,46.75
2024-05-09T08:28:06.938Z,48.47
2024-05-09T08:29:54.411Z,48.49
2024-05-09T08:30:54.512Z,47.60
2024-05-09T08:31:54.448Z,48.27
2024-05-09T08:32:54.529Z,49.52
2024-05-09T08:33:54.697Z,47.78
2024-05-09T08:34:54.510Z,44.67
2024-05-09T08:35:54.464Z,47.36
2024-05-09T08:36:55.190Z,47.02
2024-05-09T08:37:54.507Z,43.52
2024-05-09T08:38:54.495Z,43.25
2024-05-09T08:39:54.681Z,44.15
2024-05-09T08:40:54.610Z,43.91
2024-05-09T08:41:54.546Z,44.85
2024-05-09T08:42:54.565Z,45.89
2024-05-09T08:43:54.563Z,46.99
2024-05-09T08:44:54.574Z,47.27
2024-05-09T08:45:54.627Z,46.85
2024-05-09T08:46:54.598Z,46.62
2024-05-09T08:47:54.736Z,46.78
2024-05-09T08:48:54.839Z,45.47
2024-05-09T08:49:54.677Z,45.50
2024-05-09T08:51:37.130Z,41.91
2024-05-09T08:52:37.118Z,41.47
2024-05-09T08:53:37.128Z,41.22
2024-05-09T08:54:37.204Z,42.35
2024-05-09T08:55:40.044Z,44.19
2024-05-09T08:56:37.169Z,43.47
2024-05-09T08:57:37.203Z,44.42
2024-05-09T08:58:37.194Z,42.61
2024-05-09T08:59:37.210Z,42.29
2024-05-09T09:00:37.907Z,42.85
2024-05-09T09:01:38.144Z,44.76
2024-05-09T09:02:37.374Z,45.18
2024-05-09T09:03:37.624Z,44.17
2024-05-09T09:04:37.433Z,41.88
2024-05-09T09:05:37.664Z,42.85
2024-05-09T09:06:37.386Z,42.65
2024-05-09T09:07:37.386Z,43.57
2024-05-09T09:08:37.338Z,43.25
2024-05-09T09:09:37.370Z,44.12
2024-05-09T09:10:37.403Z,42.73
2024-05-09T09:11:37.409Z,44.09
2024-05-09T09:12:37.410Z,46.48
2024-05-09T09:13:37.422Z,43.97
2024-05-09T09:14:37.427Z,43.79
2024-05-09T09:15:37.481Z,43.95
2024-05-09T09:16:37.455Z,42.47
2024-05-09T09:17:37.531Z,43.27
2024-05-09T09:18:37.606Z,44.38
2024-05-09T09:19:37.541Z,45.04
2024-05-09T09:20:37.593Z,43.63
2024-05-09T09:21:37.600Z,43.52
2024-05-09T09:22:37.540Z,43.52
2024-05-09T09:23:37.553Z,44.15
2024-05-09T09:24:37.586Z,44.07
2024-05-09T09:25:37.596Z,44.89
2024-05-09T09:26:37.601Z,44.05
2024-05-09T09:27:37.727Z,42.51
2024-05-09T09:28:37.637Z,41.60
2024-05-09T09:29:37.641Z,42.09
2024-05-09T09:30:38.262Z,42.89
2024-05-09T09:31:37.689Z,42.55
2024-05-09T09:32:37.745Z,39.92
2024-05-09T09:33:37.941Z,41.12
2024-05-09T09:34:37.751Z,40.92
2024-05-09T09:35:37.733Z,41.74
2024-05-09T09:36:37.768Z,41.00
2024-05-09T09:37:37.755Z,40.30
2024-05-09T09:38:37.919Z,41.28
2024-05-09T09:39:37.825Z,40.60
2024-05-09T09:40:42.491Z,41.89
2024-05-09T09:41:37.820Z,40.01
2024-05-09T09:42:37.978Z,41.24
2024-05-09T09:43:37.851Z,42.47
2024-05-09T09:44:42.026Z,42.81
2024-05-09T09:45:37.926Z,44.31
2024-05-09T09:46:37.945Z,42.86
2024-05-09T09:47:38.002Z,41.95
2024-05-09T09:48:38.034Z,43.20
2024-05-09T09:49:38.004Z,42.57
2024-05-09T09:50:37.951Z,41.28
2024-05-09T09:52:37.988Z,41.82
2024-05-09T09:53:38.008Z,41.24
2024-05-09T09:54:38.079Z,41.87
2024-05-09T09:55:38.057Z,42.39
2024-05-09T09:56:38.053Z,42.25
2024-05-09T09:57:38.094Z,42.07
2024-05-09T09:58:38.162Z,42.59
2024-05-09T09:59:38.096Z,42.91
2024-05-09T10:00:38.305Z,44.84
2024-05-09T10:01:38.300Z,44.84
2024-05-09T10:02:38.178Z,45.72
2024-05-09T10:03:38.372Z,44.74
2024-05-09T10:04:38.286Z,44.31
2024-05-09T10:05:39.307Z,43.19
2024-05-09T10:06:38.205Z,42.39
2024-05-09T10:07:38.212Z,43.07
2024-05-09T10:08:38.242Z,42.55
2024-05-09T10:09:38.260Z,42.29
2024-05-09T10:10:38.369Z,43.82
2024-05-09T10:11:45.159Z,44.50
2024-05-09T10:12:38.403Z,42.17
2024-05-09T10:13:38.323Z,42.75
2024-05-09T10:14:38.314Z,41.46
2024-05-09T10:15:38.373Z,40.64
2024-05-09T10:16:38.350Z,40.72
2024-05-09T10:17:38.561Z,39.98
2024-05-09T10:18:38.634Z,39.15
2024-05-09T10:19:38.563Z,41.46
2024-05-09T10:20:38.398Z,41.16
2024-05-09T10:21:38.471Z,40.42
2024-05-09T10:22:38.438Z,40.11
2024-05-09T10:23:38.466Z,38.85
2024-05-09T10:24:38.499Z,38.26
2024-05-09T10:25:38.474Z,36.86
2024-05-09T10:26:38.485Z,37.96
2024-05-09T10:27:38.569Z,36.64
2024-05-09T10:28:38.523Z,36.72
2024-05-09T10:29:38.534Z,36.24
2024-05-09T10:30:39.410Z,37.93
2024-05-09T10:31:38.754Z,36.62
2024-05-09T10:32:38.673Z,36.87
2024-05-09T10:33:38.858Z,36.34
2024-05-09T10:34:38.664Z,34.82
2024-05-09T10:35:38.621Z,34.34
2024-05-09T10:36:38.669Z,35.27
2024-05-09T10:37:38.652Z,35.98
2024-05-09T10:38:38.675Z,36.49
2024-05-09T10:39:38.802Z,36.37
2024-05-09T10:40:38.754Z,35.94
2024-05-09T10:41:38.720Z,34.94
2024-05-09T10:42:38.736Z,35.55
2024-05-09T10:43:38.767Z,34.99
2024-05-09T10:44:38.766Z,35.49
2024-05-09T10:45:38.824Z,36.77
2024-05-09T10:46:38.794Z,36.18
2024-05-09T10:47:38.911Z,36.33
2024-05-09T10:48:39.150Z,36.91
2024-05-09T10:49:38.895Z,39.07
2024-05-09T10:50:38.874Z,42.27
2024-05-09T10:51:38.919Z,44.35
2024-05-09T10:52:38.908Z,46.42
2024-05-09T10:53:38.917Z,46.96
2024-05-09T10:54:38.953Z,48.61
2024-05-09T10:55:38.953Z,47.74
2024-05-09T10:56:38.970Z,46.01
2024-05-09T10:57:39.090Z,45.27
2024-05-09T10:58:39.003Z,44.53
2024-05-09T10:59:39.023Z,43.39
2024-05-09T11:00:39.165Z,42.87
2024-05-09T11:01:39.186Z,42.10
2024-05-09T11:02:39.130Z,43.41
2024-05-09T11:03:39.578Z,42.71
2024-05-09T11:04:39.175Z,44.53
2024-05-09T11:05:39.310Z,45.03
2024-05-09T11:06:39.250Z,45.43
2024-05-09T11:07:39.130Z,45.03
2024-05-09T11:08:39.143Z,44.57
2024-05-09T11:09:39.205Z,47.44
2024-05-09T11:10:39.256Z,47.31
2024-05-09T11:11:39.230Z,47.49
2024-05-09T11:12:39.209Z,46.27
2024-05-09T11:13:39.206Z,46.95
2024-05-09T11:14:39.214Z,45.73
2024-05-09T11:15:39.358Z,46.57
2024-05-09T11:16:39.243Z,47.27
2024-05-09T11:17:39.343Z,47.79
2024-05-09T11:18:39.665Z,49.02
2024-05-09T11:19:39.333Z,49.74
2024-05-09T11:20:39.356Z,48.42
2024-05-09T11:21:39.309Z,46.69
2024-05-09T11:22:39.311Z,46.51
2024-05-09T11:23:39.332Z,46.42
2024-05-09T11:24:39.379Z,47.16
2024-05-09T11:25:39.350Z,48.57
2024-05-09T11:26:39.350Z,47.96
2024-05-09T11:28:31.837Z,49.37
2024-05-09T11:29:31.836Z,48.54
2024-05-09T11:30:32.603Z,47.94
2024-05-09T11:31:32.104Z,48.94
2024-05-09T11:32:31.916Z,49.41
2024-05-09T11:33:31.993Z,48.90
2024-05-09T11:34:32.034Z,48.79
2024-05-09T11:35:31.936Z,48.99
2024-05-09T11:36:32.182Z,48.90
2024-05-09T11:37:34.096Z,47.79
2024-05-09T11:38:31.945Z,46.99
2024-05-09T11:39:32.038Z,48.52
2024-05-09T11:41:31.970Z,49.32
2024-05-09T11:42:32.015Z,49.82
2024-05-09T11:43:32.134Z,49.14
2024-05-09T11:44:31.982Z,47.99
2024-05-09T11:45:32.102Z,50.59
2024-05-09T11:46:33.215Z,49.91
2024-05-09T11:47:32.105Z,51.12
2024-05-09T11:48:32.321Z,49.58
2024-05-09T11:49:32.195Z,49.71
2024-05-09T11:50:35.471Z,50.29
2024-05-09T11:51:32.087Z,50.51
2024-05-09T11:52:32.056Z,50.84
2024-05-09T11:53:32.058Z,49.41
2024-05-09T11:54:32.104Z,50.92
2024-05-09T11:55:32.132Z,49.63
2024-05-09T11:56:32.082Z,50.96
2024-05-09T11:57:32.171Z,51.34
2024-05-09T11:58:32.119Z,50.92
2024-05-09T11:59:32.118Z,49.51
2024-05-09T12:00:36.714Z,48.69
2024-05-09T12:01:32.391Z,49.19
2024-05-09T12:02:32.202Z,49.29
2024-05-09T12:03:32.463Z,48.28
2024-05-09T12:04:32.420Z,48.86
2024-05-09T12:05:32.540Z,47.16
2024-05-09T12:06:32.337Z,47.14
2024-05-09T12:07:32.258Z,46.64
2024-05-09T12:08:32.180Z,47.24
2024-05-09T12:09:32.332Z,46.94
2024-05-09T12:10:34.768Z,48.34
2024-05-09T12:11:32.400Z,47.84
2024-05-09T12:12:33.511Z,47.34
2024-05-09T12:13:32.328Z,48.54
2024-05-09T12:14:32.236Z,48.44
2024-05-09T12:15:32.353Z,47.86
2024-05-09T12:16:32.487Z,48.07
2024-05-09T12:17:32.367Z,49.57
2024-05-09T12:18:32.367Z,48.16
2024-05-09T12:19:32.365Z,49.43
2024-05-09T12:20:37.286Z,49.66
2024-05-09T12:21:32.335Z,51.39
2024-05-09T12:22:32.661Z,52.49
2024-05-09T12:23:32.311Z,51.69
2024-05-09T12:24:32.360Z,51.89
2024-05-09T12:25:32.318Z,51.46
2024-05-09T12:26:32.325Z,51.37
2024-05-09T12:27:32.409Z,51.24
2024-05-09T12:28:32.353Z,51.24
2024-05-09T12:29:33.307Z,51.42
2024-05-09T12:32:42.403Z,50.79
2024-05-09T12:33:42.411Z,49.69
2024-05-09T12:34:42.381Z,50.39
2024-05-09T12:35:44.517Z,51.17
2024-05-09T12:36:42.490Z,49.41
2024-05-09T12:37:42.370Z,49.76
2024-05-09T12:38:42.376Z,51.04
2024-05-09T12:39:42.406Z,50.51
2024-05-09T12:40:42.514Z,50.29
2024-05-09T12:41:45.215Z,50.96
2024-05-09T12:42:42.455Z,50.44
2024-05-09T12:43:42.400Z,49.41
2024-05-09T12:44:42.407Z,48.02
2024-05-09T12:45:42.448Z,46.58
2024-05-09T12:46:42.417Z,48.49
2024-05-09T12:47:42.455Z,51.72
2024-05-09T12:48:42.568Z,50.31
2024-05-09T12:49:42.497Z,50.29
2024-05-09T12:50:42.513Z,50.69
2024-05-09T12:51:42.501Z,50.89
2024-05-09T12:52:42.463Z,49.58
2024-05-09T12:53:42.469Z,50.92
2024-05-09T12:54:42.488Z,52.04
2024-05-09T12:55:48.842Z,51.54
2024-05-09T12:56:42.489Z,51.97
2024-05-09T12:57:42.562Z,51.24
2024-05-09T12:59:24.962Z,51.46
2024-05-09T13:00:31.342Z,51.46
2024-05-09T13:02:25.192Z,51.76
2024-05-09T13:03:25.115Z,51.37
2024-05-09T13:04:25.193Z,51.14
2024-05-09T13:05:25.286Z,50.42
2024-05-09T13:07:07.987Z,50.69
2024-05-09T13:09:07.433Z,50.29